F/V Pasiphae 2 — FMFN — position and weather

sailwx.info

Track history (hours):
 
Tides and Currents Weather Stations Pressure Air Temp Water Temp Dewpoint Dewpoint Depression Visibility Wind Speed Wind Dir Waves Ship Positions

F/V Pasiphae 2

Last reported at 2017-Apr-28 03:46 UTC. Time now 2017-Apr-28 19:58 UTC.
Position N 47°19' W 003°32'.

Length 14 m.

Type: Fishing. MMSI: 228224800.

Date/timePositionNaut miles runAvg speedWind from/ knotsBaromVisibWave heightAir tempDewpointWater temp
2017-Apr-28 03:46N 47°19' W 003°32'3 8.9
2017-Apr-28 03:27N 47°21' W 003°31'4 8.9
2017-Apr-28 03:01N 47°25' W 003°29'4 8.8
2017-Apr-28 02:30N 47°29' W 003°26'4 8.7
2017-Apr-28 02:00N 47°33' W 003°24'4 8.9
2017-Apr-28 01:30N 47°37' W 003°22'5 9.0
2017-Apr-28 01:01N 47°42' W 003°22'2 3.7
2017-Apr-28 00:30N 47°44' W 003°22'0 0.0
2017-Apr-28 00:00N 47°44' W 003°22'4 7.2
2017-Apr-27 23:30N 47°40' W 003°22'4 8.9
2017-Apr-27 23:00N 47°36' W 003°23'4 8.3
2017-Apr-27 22:31N 47°32' W 003°25'4 8.7
2017-Apr-27 22:00N 47°28' W 003°27'4 8.5
2017-Apr-27 21:31N 47°24' W 003°29'4 8.4
2017-Apr-27 21:00N 47°20' W 003°32'8 0.2
2017-Apr-26 04:38N 47°14' W 003°23'1 9.2
2017-Apr-26 04:30N 47°16' W 003°23'5 9.3
2017-Apr-26 03:55N 47°21' W 003°23'4 9.6
2017-Apr-26 03:30N 47°25' W 003°23'5 9.1
2017-Apr-26 03:00N 47°30' W 003°23'5 9.4
2017-Apr-26 02:30N 47°34' W 003°23'5 9.6
2017-Apr-26 02:00N 47°39' W 003°22'4 8.6
2017-Apr-26 01:30N 47°43' W 003°22'0 0.6
2017-Apr-26 01:00N 47°44' W 003°22'0 0.0
2017-Apr-26 00:30N 47°44' W 003°22'2 3.9
2017-Apr-26 00:00N 47°42' W 003°22'5 9.2
2017-Apr-25 23:30N 47°37' W 003°22'5 9.2
2017-Apr-25 23:00N 47°33' W 003°22'5 9.5
2017-Apr-25 22:30N 47°28' W 003°23'5 9.5
2017-Apr-25 22:00N 47°23' W 003°23'4 8.9
2017-Apr-25 21:30N 47°19' W 003°23'4 8.8
2017-Apr-25 21:00N 47°14' W 003°23'7 0.2
2017-Apr-24 05:06N 47°08' W 003°27'3 8.9
2017-Apr-24 04:42N 47°11' W 003°26'2 9.2
2017-Apr-24 04:27N 47°13' W 003°26'4 9.1
2017-Apr-24 03:59N 47°18' W 003°25'4 9.2
2017-Apr-24 03:30N 47°22' W 003°25'5 9.3
2017-Apr-24 03:00N 47°27' W 003°24'5 9.2
2017-Apr-24 02:30N 47°31' W 003°23'5 9.2
2017-Apr-24 02:01N 47°36' W 003°22'4 9.0
2017-Apr-24 01:30N 47°40' W 003°22'4 7.4
2017-Apr-24 01:00N 47°44' W 003°22'0 0.0
2017-Apr-22 00:13N 47°44' W 003°22'1 4.4
2017-Apr-22 00:00N 47°43' W 003°22'4 9.0
2017-Apr-21 23:30N 47°38' W 003°23'4 8.9
2017-Apr-21 23:00N 47°34' W 003°23'5 9.1
2017-Apr-21 22:30N 47°29' W 003°23'5 9.1
2017-Apr-21 22:00N 47°25' W 003°24'4 8.9
2017-Apr-21 21:30N 47°20' W 003°25'4 9.0
2017-Apr-21 21:00N 47°16' W 003°25'5 9.1
2017-Apr-21 20:30N 47°11' W 003°26'3 5.6
2017-Apr-21 20:00N 47°09' W 003°27'7 0.2
2017-Apr-20 03:13N 47°15' W 003°24'3 8.5
2017-Apr-20 02:53N 47°18' W 003°24'4 8.7
2017-Apr-20 02:28N 47°22' W 003°24'4 8.8
2017-Apr-20 02:00N 47°26' W 003°23'4 8.7
2017-Apr-20 01:30N 47°30' W 003°23'4 8.9
2017-Apr-20 01:00N 47°35' W 003°23'5 9.1
2017-Apr-20 00:30N 47°39' W 003°23'5 9.0
2017-Apr-20 00:00N 47°44' W 003°22'0 0.0
2017-Apr-19 23:30N 47°44' W 003°22'0 0.0
2017-Apr-19 23:00N 47°44' W 003°22'0 0.4
2017-Apr-19 22:30N 47°44' W 003°22'1 1.9
2017-Apr-19 22:00N 47°43' W 003°22'5 9.0
2017-Apr-19 21:30N 47°38' W 003°22'4 8.8
2017-Apr-19 21:00N 47°34' W 003°23'4 8.8
2017-Apr-19 20:30N 47°29' W 003°24'4 8.7
2017-Apr-19 20:00N 47°25' W 003°24'4 8.9
2017-Apr-19 19:30N 47°21' W 003°24'  
Track history (hours):
 
Tides and Currents Weather Stations Pressure Air Temp Water Temp Dewpoint Dewpoint Depression Visibility Wind Speed Wind Dir Waves Ship Positions

F/V Pasiphae 2

Last reported at 2017-Apr-28 03:46 UTC. Time now 2017-Apr-28 19:58 UTC.
Position N 47°19' W 003°32'.

Length 14 m.

Type: Fishing. MMSI: 228224800.

Date/timePositionNaut miles runAvg speedWind from/ knotsBaromVisibWave heightAir tempDewpointWater temp
2017-Apr-28 03:46N 47°19' W 003°32'3 8.9
2017-Apr-28 03:27N 47°21' W 003°31'4 8.9
2017-Apr-28 03:01N 47°25' W 003°29'4 8.8
2017-Apr-28 02:30N 47°29' W 003°26'4 8.7
2017-Apr-28 02:00N 47°33' W 003°24'4 8.9
2017-Apr-28 01:30N 47°37' W 003°22'5 9.0
2017-Apr-28 01:01N 47°42' W 003°22'2 3.7
2017-Apr-28 00:30N 47°44' W 003°22'0 0.0
2017-Apr-28 00:00N 47°44' W 003°22'4 7.2
2017-Apr-27 23:30N 47°40' W 003°22'4 8.9
2017-Apr-27 23:00N 47°36' W 003°23'4 8.3
2017-Apr-27 22:31N 47°32' W 003°25'4 8.7
2017-Apr-27 22:00N 47°28' W 003°27'4 8.5
2017-Apr-27 21:31N 47°24' W 003°29'4 8.4
2017-Apr-27 21:00N 47°20' W 003°32'8 0.2
2017-Apr-26 04:38N 47°14' W 003°23'1 9.2
2017-Apr-26 04:30N 47°16' W 003°23'5 9.3
2017-Apr-26 03:55N 47°21' W 003°23'4 9.6
2017-Apr-26 03:30N 47°25' W 003°23'5 9.1
2017-Apr-26 03:00N 47°30' W 003°23'5 9.4
2017-Apr-26 02:30N 47°34' W 003°23'5 9.6
2017-Apr-26 02:00N 47°39' W 003°22'4 8.6
2017-Apr-26 01:30N 47°43' W 003°22'0 0.6
2017-Apr-26 01:00N 47°44' W 003°22'0 0.0
2017-Apr-26 00:30N 47°44' W 003°22'2 3.9
2017-Apr-26 00:00N 47°42' W 003°22'5 9.2
2017-Apr-25 23:30N 47°37' W 003°22'5 9.2
2017-Apr-25 23:00N 47°33' W 003°22'5 9.5
2017-Apr-25 22:30N 47°28' W 003°23'5 9.5
2017-Apr-25 22:00N 47°23' W 003°23'4 8.9
2017-Apr-25 21:30N 47°19' W 003°23'4 8.8
2017-Apr-25 21:00N 47°14' W 003°23'7 0.2
2017-Apr-24 05:06N 47°08' W 003°27'3 8.9
2017-Apr-24 04:42N 47°11' W 003°26'2 9.2
2017-Apr-24 04:27N 47°13' W 003°26'4 9.1
2017-Apr-24 03:59N 47°18' W 003°25'4 9.2
2017-Apr-24 03:30N 47°22' W 003°25'5 9.3
2017-Apr-24 03:00N 47°27' W 003°24'5 9.2
2017-Apr-24 02:30N 47°31' W 003°23'5 9.2
2017-Apr-24 02:01N 47°36' W 003°22'4 9.0
2017-Apr-24 01:30N 47°40' W 003°22'4 7.4
2017-Apr-24 01:00N 47°44' W 003°22'0 0.0
2017-Apr-22 00:13N 47°44' W 003°22'1 4.4
2017-Apr-22 00:00N 47°43' W 003°22'4 9.0
2017-Apr-21 23:30N 47°38' W 003°23'4 8.9
2017-Apr-21 23:00N 47°34' W 003°23'5 9.1
2017-Apr-21 22:30N 47°29' W 003°23'5 9.1
2017-Apr-21 22:00N 47°25' W 003°24'4 8.9
2017-Apr-21 21:30N 47°20' W 003°25'4 9.0
2017-Apr-21 21:00N 47°16' W 003°25'5 9.1
2017-Apr-21 20:30N 47°11' W 003°26'3 5.6
2017-Apr-21 20:00N 47°09' W 003°27'7 0.2
2017-Apr-20 03:13N 47°15' W 003°24'3 8.5
2017-Apr-20 02:53N 47°18' W 003°24'4 8.7
2017-Apr-20 02:28N 47°22' W 003°24'4 8.8
2017-Apr-20 02:00N 47°26' W 003°23'4 8.7
2017-Apr-20 01:30N 47°30' W 003°23'4 8.9
2017-Apr-20 01:00N 47°35' W 003°23'5 9.1
2017-Apr-20 00:30N 47°39' W 003°23'5 9.0
2017-Apr-20 00:00N 47°44' W 003°22'0 0.0
2017-Apr-19 23:30N 47°44' W 003°22'0 0.0
2017-Apr-19 23:00N 47°44' W 003°22'0 0.4
2017-Apr-19 22:30N 47°44' W 003°22'1 1.9
2017-Apr-19 22:00N 47°43' W 003°22'5 9.0
2017-Apr-19 21:30N 47°38' W 003°22'4 8.8
2017-Apr-19 21:00N 47°34' W 003°23'4 8.8
2017-Apr-19 20:30N 47°29' W 003°24'4 8.7
2017-Apr-19 20:00N 47°25' W 003°24'4 8.9
2017-Apr-19 19:30N 47°21' W 003°24'  

Dump ship's entire track history